sensor_id;sensor_type;location;lat;lon;timestamp;P1;P2;P0
74434;PMS7003;62867;52.038;29.256;2022-10-26T00:03:49;19.3;15.8;9.5
74434;PMS7003;62867;52.038;29.256;2022-10-26T00:09:27;20.4;16.4;9.2
74434;PMS7003;62867;52.038;29.256;2022-10-26T00:14:19;20.6;15.8;9
74434;PMS7003;62867;52.038;29.256;2022-10-26T00:19:03;19.2;15.4;9
74434;PMS7003;62867;52.038;29.256;2022-10-26T00:24:13;17.4;14.4;8.4
74434;PMS7003;62867;52.038;29.256;2022-10-26T00:29:25;21;17.2;9.8
74434;PMS7003;62867;52.038;29.256;2022-10-26T00:34:25;20.8;16.2;8.8
74434;PMS7003;62867;52.038;29.256;2022-10-26T00:39:09;16.8;14.6;8.2
74434;PMS7003;62867;52.038;29.256;2022-10-26T00:44:37;17.6;14.4;8.8
74434;PMS7003;62867;52.038;29.256;2022-10-26T00:49:04;18.4;14.2;7.4
74434;PMS7003;62867;52.038;29.256;2022-10-26T00:54:15;16.2;13;7.6
74434;PMS7003;62867;52.038;29.256;2022-10-26T00:59:25;15.4;12.6;7.2
74434;PMS7003;62867;52.038;29.256;2022-10-26T01:04:07;16.6;12;7.2
74434;PMS7003;62867;52.038;29.256;2022-10-26T01:09:17;18.8;13.8;7.3
74434;PMS7003;62867;52.038;29.256;2022-10-26T01:14:23;14.8;12.2;6.6
74434;PMS7003;62867;52.038;29.256;2022-10-26T01:19:23;16.2;12.8;7
74434;PMS7003;62867;52.038;29.256;2022-10-26T01:24:45;16;12.6;6.6
74434;PMS7003;62867;52.038;29.256;2022-10-26T01:30:32;17.8;12.2;6.4
74434;PMS7003;62867;52.038;29.256;2022-10-26T01:34:05;15.4;11;6.2
74434;PMS7003;62867;52.038;29.256;2022-10-26T01:39:00;15.6;12.8;7
74434;PMS7003;62867;52.038;29.256;2022-10-26T01:44:24;17;13.6;8.4
74434;PMS7003;62867;52.038;29.256;2022-10-26T01:49:31;17.6;13.6;7.8
74434;PMS7003;62867;52.038;29.256;2022-10-26T01:54:25;17.4;14.2;8
74434;PMS7003;62867;52.038;29.256;2022-10-26T01:59:25;16.8;13;7.6
74434;PMS7003;62867;52.038;29.256;2022-10-26T02:04:24;15.6;12.8;7.2
74434;PMS7003;62867;52.038;29.256;2022-10-26T02:09:11;17;12.8;7.5
74434;PMS7003;62867;52.038;29.256;2022-10-26T02:14:20;18.2;13;7.8
74434;PMS7003;62867;52.038;29.256;2022-10-26T02:19:02;18.4;13.2;6.6
74434;PMS7003;62867;52.038;29.256;2022-10-26T02:23:50;14.4;12.2;6.6
74434;PMS7003;62867;52.038;29.256;2022-10-26T02:29:04;17.8;13.6;7.6
74434;PMS7003;62867;52.038;29.256;2022-10-26T02:33:49;17.2;12.8;8.2
74434;PMS7003;62867;52.038;29.256;2022-10-26T02:39:28;17.6;12.8;7.4
74434;PMS7003;62867;52.038;29.256;2022-10-26T02:44:06;16.2;13.8;7.4
74434;PMS7003;62867;52.038;29.256;2022-10-26T02:49:13;18.6;15;8
74434;PMS7003;62867;52.038;29.256;2022-10-26T02:54:17;21.4;15.4;7.6
74434;PMS7003;62867;52.038;29.256;2022-10-26T02:59:31;17.6;14;7.6
74434;PMS7003;62867;52.038;29.256;2022-10-26T03:04:28;23;16.6;9
74434;PMS7003;62867;52.038;29.256;2022-10-26T03:09:01;19;14.5;8.5
74434;PMS7003;62867;52.038;29.256;2022-10-26T03:14:03;18;13.2;8
74434;PMS7003;62867;52.038;29.256;2022-10-26T03:19:01;18.2;14.2;8.4
74434;PMS7003;62867;52.038;29.256;2022-10-26T03:24:15;22.2;15.8;9.4
74434;PMS7003;62867;52.038;29.256;2022-10-26T03:29:09;21;16.4;8.2
74434;PMS7003;62867;52.038;29.256;2022-10-26T03:33:55;18.2;16;9
74434;PMS7003;62867;52.038;29.256;2022-10-26T03:39:19;20.4;15;8.8
74434;PMS7003;62867;52.038;29.256;2022-10-26T03:44:29;19.4;15.8;8.8
74434;PMS7003;62867;52.038;29.256;2022-10-26T03:49:17;18.2;15.2;8.2
74434;PMS7003;62867;52.038;29.256;2022-10-26T03:54:27;16.4;14;8.4
74434;PMS7003;62867;52.038;29.256;2022-10-26T03:59:29;16.2;14;7.8
74434;PMS7003;62867;52.038;29.256;2022-10-26T04:04:03;20.2;16.4;9
74434;PMS7003;62867;52.038;29.256;2022-10-26T04:09:03;23;17.5;9.3
74434;PMS7003;62867;52.038;29.256;2022-10-26T04:14:21;21.6;15.6;9
74434;PMS7003;62867;52.038;29.256;2022-10-26T04:19:29;19.6;15.2;8.2
74434;PMS7003;62867;52.038;29.256;2022-10-26T04:24:15;22.8;16.4;9.4
74434;PMS7003;62867;52.038;29.256;2022-10-26T04:29:19;27.4;19.4;10.8
74434;PMS7003;62867;52.038;29.256;2022-10-26T04:34:19;25.6;20.4;10.6
74434;PMS7003;62867;52.038;29.256;2022-10-26T04:38:49;27.4;21.4;11
74434;PMS7003;62867;52.038;29.256;2022-10-26T04:44:07;27.6;22.4;11.6
74434;PMS7003;62867;52.038;29.256;2022-10-26T04:49:15;27.4;22.6;11.2
74434;PMS7003;62867;52.038;29.256;2022-10-26T04:54:03;27;20.4;10.8
74434;PMS7003;62867;52.038;29.256;2022-10-26T04:59:03;26.6;19.8;10.8
74434;PMS7003;62867;52.038;29.256;2022-10-26T05:04:11;30.6;21.6;11
74434;PMS7003;62867;52.038;29.256;2022-10-26T05:09:29;25.8;20;10.8
74434;PMS7003;62867;52.038;29.256;2022-10-26T05:14:21;22.4;19.4;10.4
74434;PMS7003;62867;52.038;29.256;2022-10-26T05:19:13;24.8;20.8;11.2
74434;PMS7003;62867;52.038;29.256;2022-10-26T05:24:15;30.8;23.6;11.2
74434;PMS7003;62867;52.038;29.256;2022-10-26T05:29:29;33;26;12.2
74434;PMS7003;62867;52.038;29.256;2022-10-26T05:34:29;30.8;25;13.2
74434;PMS7003;62867;52.038;29.256;2022-10-26T05:39:09;32.4;23.2;12.2
74434;PMS7003;62867;52.038;29.256;2022-10-26T05:43:49;29;22.4;11.2
74434;PMS7003;62867;52.038;29.256;2022-10-26T05:48:49;31;25.4;12
74434;PMS7003;62867;52.038;29.256;2022-10-26T05:54:19;36.2;27.6;13.6
74434;PMS7003;62867;52.038;29.256;2022-10-26T05:58:56;34.8;28.6;14.4
74434;PMS7003;62867;52.038;29.256;2022-10-26T06:04:13;38.4;30.4;14.4
74434;PMS7003;62867;52.038;29.256;2022-10-26T06:09:22;44.4;31.4;17
74434;PMS7003;62867;52.038;29.256;2022-10-26T06:14:24;33.8;27;14.3
74434;PMS7003;62867;52.038;29.256;2022-10-26T06:19:17;34.6;30;16
74434;PMS7003;62867;52.038;29.256;2022-10-26T06:24:33;34.6;26.2;13.2
74434;PMS7003;62867;52.038;29.256;2022-10-26T06:29:23;32.6;26;14.8
74434;PMS7003;62867;52.038;29.256;2022-10-26T06:34:03;30;24;13.6
74434;PMS7003;62867;52.038;29.256;2022-10-26T06:38:51;33.8;27.4;14.6
74434;PMS7003;62867;52.038;29.256;2022-10-26T06:44:04;36.8;25.8;13.6
74434;PMS7003;62867;52.038;29.256;2022-10-26T06:49:33;31.6;25.4;13
74434;PMS7003;62867;52.038;29.256;2022-10-26T06:54:21;29.8;23.8;13
74434;PMS7003;62867;52.038;29.256;2022-10-26T06:59:31;33.2;24.4;13.4
74434;PMS7003;62867;52.038;29.256;2022-10-26T07:04:23;28;21.4;11.6
74434;PMS7003;62867;52.038;29.256;2022-10-26T07:09:17;28.6;23.2;12
74434;PMS7003;62867;52.038;29.256;2022-10-26T07:13:49;28.3;22.8;12.5
74434;PMS7003;62867;52.038;29.256;2022-10-26T07:19:17;27.8;21.8;11.8
74434;PMS7003;62867;52.038;29.256;2022-10-26T07:23:49;26;21;11.4
74434;PMS7003;62867;52.038;29.256;2022-10-26T07:29:09;26.2;20.2;11.2
74434;PMS7003;62867;52.038;29.256;2022-10-26T07:33:49;24.4;19.6;10
74434;PMS7003;62867;52.038;29.256;2022-10-26T07:39:31;30;23;12.6
74434;PMS7003;62867;52.038;29.256;2022-10-26T07:44:31;28.6;22.6;11.8
74434;PMS7003;62867;52.038;29.256;2022-10-26T07:49:13;32;25;12.6
74434;PMS7003;62867;52.038;29.256;2022-10-26T07:54:13;28.2;23.4;12.2
74434;PMS7003;62867;52.038;29.256;2022-10-26T07:59:29;28.6;21.2;11.8
74434;PMS7003;62867;52.038;29.256;2022-10-26T08:04:29;28.6;23.2;12.2
74434;PMS7003;62867;52.038;29.256;2022-10-26T08:09:11;26.6;20.8;11.4
74434;PMS7003;62867;52.038;29.256;2022-10-26T08:13:52;29;23;11.5
74434;PMS7003;62867;52.038;29.256;2022-10-26T08:19:06;29;21.2;11
74434;PMS7003;62867;52.038;29.256;2022-10-26T08:24:06;25.8;20.6;10.2
74434;PMS7003;62867;52.038;29.256;2022-10-26T08:29:13;30.6;22.2;12
74434;PMS7003;62867;52.038;29.256;2022-10-26T08:34:11;26.2;21.6;12.2
74434;PMS7003;62867;52.038;29.256;2022-10-26T08:39:22;27.6;21.4;11.6
74434;PMS7003;62867;52.038;29.256;2022-10-26T08:44:28;32.2;23.8;12.8
74434;PMS7003;62867;52.038;29.256;2022-10-26T08:49:09;31.2;23.6;12.2
74434;PMS7003;62867;52.038;29.256;2022-10-26T08:54:33;33.6;27.4;14.4
74434;PMS7003;62867;52.038;29.256;2022-10-26T08:59:28;31;24.8;13.6
74434;PMS7003;62867;52.038;29.256;2022-10-26T09:04:05;32.8;23.4;13
74434;PMS7003;62867;52.038;29.256;2022-10-26T09:09:02;28.2;20.6;12
74434;PMS7003;62867;52.038;29.256;2022-10-26T09:13:52;30.8;23;12.3
74434;PMS7003;62867;52.038;29.256;2022-10-26T09:19:34;31.6;25;13.4
74434;PMS7003;62867;52.038;29.256;2022-10-26T09:24:21;31.8;25;12
74434;PMS7003;62867;52.038;29.256;2022-10-26T09:29:33;29;23.6;12.6
74434;PMS7003;62867;52.038;29.256;2022-10-26T09:34:23;32.6;26.2;13.4
74434;PMS7003;62867;52.038;29.256;2022-10-26T09:39:27;30;24.6;13.2
74434;PMS7003;62867;52.038;29.256;2022-10-26T09:44:04;31;26.2;13.6
74434;PMS7003;62867;52.038;29.256;2022-10-26T09:49:16;31.4;24.6;13.2
74434;PMS7003;62867;52.038;29.256;2022-10-26T09:54:24;37.6;28.2;14.8
74434;PMS7003;62867;52.038;29.256;2022-10-26T09:59:04;33;24;13.4
74434;PMS7003;62867;52.038;29.256;2022-10-26T10:04:00;35.6;25;13.4
74434;PMS7003;62867;52.038;29.256;2022-10-26T10:09:32;31.4;23.4;12.4
74434;PMS7003;62867;52.038;29.256;2022-10-26T10:14:36;30.8;23.5;11.5
74434;PMS7003;62867;52.038;29.256;2022-10-26T10:19:24;29.8;24;13.8
74434;PMS7003;62867;52.038;29.256;2022-10-26T10:24:24;35;24.6;13
74434;PMS7003;62867;52.038;29.256;2022-10-26T10:29:23;43.2;34;18
74434;PMS7003;62867;52.038;29.256;2022-10-26T10:34:34;34;26.8;13.6
74434;PMS7003;62867;52.038;29.256;2022-10-26T10:38:50;31.8;26.2;14.2
74434;PMS7003;62867;52.038;29.256;2022-10-26T10:44:04;37.8;30.2;16.4
74434;PMS7003;62867;52.038;29.256;2022-10-26T10:49:04;46.4;35.4;20
74434;PMS7003;62867;52.038;29.256;2022-10-26T10:54:17;32.8;24.6;12.8
74434;PMS7003;62867;52.038;29.256;2022-10-26T10:58:52;25.2;20.4;11.4
74434;PMS7003;62867;52.038;29.256;2022-10-26T11:03:54;24.8;19.4;10.8
74434;PMS7003;62867;52.038;29.256;2022-10-26T11:09:23;20.4;17;9.8
74434;PMS7003;62867;52.038;29.256;2022-10-26T11:14:24;17.4;15.2;9.6
74434;PMS7003;62867;52.038;29.256;2022-10-26T11:19:06;21;17.5;9.5
74434;PMS7003;62867;52.038;29.256;2022-10-26T11:24:34;19.8;16.6;9
74434;PMS7003;62867;52.038;29.256;2022-10-26T11:29:27;21;17.2;9.2
74434;PMS7003;62867;52.038;29.256;2022-10-26T11:34:16;16.2;14.6;8.4
74434;PMS7003;62867;52.038;29.256;2022-10-26T11:38:51;17.8;14.8;8.2
74434;PMS7003;62867;52.038;29.256;2022-10-26T11:44:04;14.8;12.6;8
74434;PMS7003;62867;52.038;29.256;2022-10-26T11:49:36;16;13.6;7.6
74434;PMS7003;62867;52.038;29.256;2022-10-26T11:54:20;16.8;12.8;7.2
74434;PMS7003;62867;52.038;29.256;2022-10-26T11:59:35;14.2;11.6;6.4
74434;PMS7003;62867;52.038;29.256;2022-10-26T12:04:22;15.8;13.6;7.4
74434;PMS7003;62867;52.038;29.256;2022-10-26T12:09:26;30;24;13.8
74434;PMS7003;62867;52.038;29.256;2022-10-26T12:13:58;23.8;20;10.8
74434;PMS7003;62867;52.038;29.256;2022-10-26T12:19:23;25.8;21.3;11
74434;PMS7003;62867;52.038;29.256;2022-10-26T12:23:58;20.6;17;9.6
74434;PMS7003;62867;52.038;29.256;2022-10-26T12:29:32;20.6;17;9.6
74434;PMS7003;62867;52.038;29.256;2022-10-26T12:34:04;20;16.4;9.4
74434;PMS7003;62867;52.038;29.256;2022-10-26T12:39:34;14.6;11.4;6.6
74434;PMS7003;62867;52.038;29.256;2022-10-26T12:44:34;15.8;11.4;6.4
74434;PMS7003;62867;52.038;29.256;2022-10-26T12:49:58;17;12.6;7
74434;PMS7003;62867;52.038;29.256;2022-10-26T12:53:50;13.6;11.4;6
74434;PMS7003;62867;52.038;29.256;2022-10-26T12:59:20;13.6;10.8;6.4
74434;PMS7003;62867;52.038;29.256;2022-10-26T13:04:51;12.4;10;6
74434;PMS7003;62867;52.038;29.256;2022-10-26T13:09:02;12.8;10.4;6.4
74434;PMS7003;62867;52.038;29.256;2022-10-26T13:14:04;16.4;13.2;7.6
74434;PMS7003;62867;52.038;29.256;2022-10-26T13:18:50;20.8;16.8;10
74434;PMS7003;62867;52.038;29.256;2022-10-26T13:24:04;20.4;16.4;9.4
74434;PMS7003;62867;52.038;29.256;2022-10-26T13:29:10;17.8;14.4;8.6
74434;PMS7003;62867;52.038;29.256;2022-10-26T13:34:13;23.2;18.2;10.6
74434;PMS7003;62867;52.038;29.256;2022-10-26T13:39:22;17.2;14;8.8
74434;PMS7003;62867;52.038;29.256;2022-10-26T13:44:27;15.2;11.4;7.6
74434;PMS7003;62867;52.038;29.256;2022-10-26T13:49:17;15.2;13;8
74434;PMS7003;62867;52.038;29.256;2022-10-26T13:54:34;18.2;15;8.8
74434;PMS7003;62867;52.038;29.256;2022-10-26T13:59:24;17.8;14.8;9.6
74434;PMS7003;62867;52.038;29.256;2022-10-26T14:04:13;19.2;14.6;7.8
74434;PMS7003;62867;52.038;29.256;2022-10-26T14:08:50;15.8;12.2;6.8
74434;PMS7003;62867;52.038;29.256;2022-10-26T14:13:50;13.2;9.4;6.4
74434;PMS7003;62867;52.038;29.256;2022-10-26T14:19:21;12.5;10;6
74434;PMS7003;62867;52.038;29.256;2022-10-26T14:24:22;12.2;10;5.6
74434;PMS7003;62867;52.038;29.256;2022-10-26T14:29:32;13.2;10.8;6.2
74434;PMS7003;62867;52.038;29.256;2022-10-26T14:34:22;12.2;9.4;5.6
74434;PMS7003;62867;52.038;29.256;2022-10-26T14:39:26;12;9.4;5.6
74434;PMS7003;62867;52.038;29.256;2022-10-26T14:44:14;14.6;11;6.2
74434;PMS7003;62867;52.038;29.256;2022-10-26T14:49:21;16.8;12.8;7.2
74434;PMS7003;62867;52.038;29.256;2022-10-26T14:54:22;21.2;16.2;9.8
74434;PMS7003;62867;52.038;29.256;2022-10-26T14:58:50;27.8;20;9.4
74434;PMS7003;62867;52.038;29.256;2022-10-26T15:04:04;25.2;19.2;10
74434;PMS7003;62867;52.038;29.256;2022-10-26T15:08:52;26;21.2;11.2
74434;PMS7003;62867;52.038;29.256;2022-10-26T15:14:34;29;22.6;12.8
74434;PMS7003;62867;52.038;29.256;2022-10-26T15:19:13;25.3;18;10.3
74434;PMS7003;62867;52.038;29.256;2022-10-26T15:23:50;19.2;14.6;8.8
74434;PMS7003;62867;52.038;29.256;2022-10-26T15:29:32;18.4;13.6;7.6
74434;PMS7003;62867;52.038;29.256;2022-10-26T15:34:32;13.8;11.2;7.2
74434;PMS7003;62867;52.038;29.256;2022-10-26T15:39:32;15.2;13;7.8
74434;PMS7003;62867;52.038;29.256;2022-10-26T15:44:05;17.4;12.8;7
74434;PMS7003;62867;52.038;29.256;2022-10-26T15:49:02;18.6;14.6;8.6
74434;PMS7003;62867;52.038;29.256;2022-10-26T15:54:03;19.8;13.6;8
74434;PMS7003;62867;52.038;29.256;2022-10-26T15:59:18;22.6;17.8;9.6
74434;PMS7003;62867;52.038;29.256;2022-10-26T16:04:10;25.8;20.2;11.4
74434;PMS7003;62867;52.038;29.256;2022-10-26T16:08:56;22.4;18.4;10.2
74434;PMS7003;62867;52.038;29.256;2022-10-26T16:14:22;22;17;10
74434;PMS7003;62867;52.038;29.256;2022-10-26T16:19:30;24.6;19.2;11.2
74434;PMS7003;62867;52.038;29.256;2022-10-26T16:24:20;28.3;22.3;12.8
74434;PMS7003;62867;52.038;29.256;2022-10-26T16:29:30;29.8;24.2;13.6
74434;PMS7003;62867;52.038;29.256;2022-10-26T16:34:30;30.6;24.6;14.6
74434;PMS7003;62867;52.038;29.256;2022-10-26T16:39:00;25.4;20.8;12.2
74434;PMS7003;62867;52.038;29.256;2022-10-26T16:43:50;25.6;19.4;11.2
74434;PMS7003;62867;52.038;29.256;2022-10-26T16:49:12;23.4;17.4;11
74434;PMS7003;62867;52.038;29.256;2022-10-26T16:54:32;25.2;18;10.4
74434;PMS7003;62867;52.038;29.256;2022-10-26T16:59:20;20.2;17.8;10.6
74434;PMS7003;62867;52.038;29.256;2022-10-26T17:04:20;21.4;16.8;9.2
74434;PMS7003;62867;52.038;29.256;2022-10-26T17:09:18;19.2;14.8;9.2
74434;PMS7003;62867;52.038;29.256;2022-10-26T17:14:10;21.8;15.2;8.6
74434;PMS7003;62867;52.038;29.256;2022-10-26T17:19:10;20.2;17.8;10.4
74434;PMS7003;62867;52.038;29.256;2022-10-26T17:24:20;20.5;17;10.3
74434;PMS7003;62867;52.038;29.256;2022-10-26T17:28:50;19;16;8.8
74434;PMS7003;62867;52.038;29.256;2022-10-26T17:33:50;19;16.2;9.4
74434;PMS7003;62867;52.038;29.256;2022-10-26T17:38:51;18.4;13.4;7.4
74434;PMS7003;62867;52.038;29.256;2022-10-26T17:44:30;16.8;13.2;8.4
74434;PMS7003;62867;52.038;29.256;2022-10-26T17:49:22;15;11.6;7
74434;PMS7003;62867;52.038;29.256;2022-10-26T17:53:50;16;13.8;8.4
74434;PMS7003;62867;52.038;29.256;2022-10-26T17:59:12;17.8;13.4;8
74434;PMS7003;62867;52.038;29.256;2022-10-26T18:04:30;19.2;14.6;7.8
74434;PMS7003;62867;52.038;29.256;2022-10-26T18:09:30;18.6;15.2;8.8
74434;PMS7003;62867;52.038;29.256;2022-10-26T18:14:08;17.8;14.2;8.4
74434;PMS7003;62867;52.038;29.256;2022-10-26T18:18:53;16.6;13.4;8.8
74434;PMS7003;62867;52.038;29.256;2022-10-26T18:23:50;13.3;12.3;7.3
74434;PMS7003;62867;52.038;29.256;2022-10-26T18:29:18;18.6;13.4;8.2
74434;PMS7003;62867;52.038;29.256;2022-10-26T18:34:08;16.8;12.8;7.6
74434;PMS7003;62867;52.038;29.256;2022-10-26T18:39:08;17.6;14.6;8.2
74434;PMS7003;62867;52.038;29.256;2022-10-26T18:44:22;18;12.8;8.4
74434;PMS7003;62867;52.038;29.256;2022-10-26T18:49:16;15.2;13;7.8
74434;PMS7003;62867;52.038;29.256;2022-10-26T18:54:20;16.8;13.2;7.8
74434;PMS7003;62867;52.038;29.256;2022-10-26T18:59:32;18.4;14.6;8.8
74434;PMS7003;62867;52.038;29.256;2022-10-26T19:04:30;18.2;13.4;8.2
74434;PMS7003;62867;52.038;29.256;2022-10-26T19:08:50;18.4;13.4;8.4
74434;PMS7003;62867;52.038;29.256;2022-10-26T19:13:50;17.4;13.6;8.4
74434;PMS7003;62867;52.038;29.256;2022-10-26T19:19:12;18;14.4;8
74434;PMS7003;62867;52.038;29.256;2022-10-26T19:24:32;18.3;14.3;8
74434;PMS7003;62867;52.038;29.256;2022-10-26T19:29:18;15.8;13.2;8
74434;PMS7003;62867;52.038;29.256;2022-10-26T19:34:30;16.8;13.4;8
74434;PMS7003;62867;52.038;29.256;2022-10-26T19:39:10;17;14.2;8.4
74434;PMS7003;62867;52.038;29.256;2022-10-26T19:44:22;23;16.6;9.4
74434;PMS7003;62867;52.038;29.256;2022-10-26T19:49:12;20;15.8;9.2
74434;PMS7003;62867;52.038;29.256;2022-10-26T19:54:18;19.6;14.4;8.6
74434;PMS7003;62867;52.038;29.256;2022-10-26T19:59:04;20;15;8.8
74434;PMS7003;62867;52.038;29.256;2022-10-26T20:04:06;20.8;16.2;8.6
74434;PMS7003;62867;52.038;29.256;2022-10-26T20:08:50;17.2;14.4;8
74434;PMS7003;62867;52.038;29.256;2022-10-26T20:14:20;21;16.6;9.2
74434;PMS7003;62867;52.038;29.256;2022-10-26T20:19:32;19;15.6;8.8
74434;PMS7003;62867;52.038;29.256;2022-10-26T20:24:12;21;15.5;8.5
74434;PMS7003;62867;52.038;29.256;2022-10-26T20:29:12;19.6;15;8.8
74434;PMS7003;62867;52.038;29.256;2022-10-26T20:34:32;20.4;15.6;9.2
74434;PMS7003;62867;52.038;29.256;2022-10-26T20:39:30;17.2;15;8.4
74434;PMS7003;62867;52.038;29.256;2022-10-26T20:44:11;20.8;16.6;9
74434;PMS7003;62867;52.038;29.256;2022-10-26T20:49:08;18.8;15.2;9.4
74434;PMS7003;62867;52.038;29.256;2022-10-26T20:53:50;18.2;15;9
74434;PMS7003;62867;52.038;29.256;2022-10-26T20:58:50;19.2;15.8;8.6
74434;PMS7003;62867;52.038;29.256;2022-10-26T21:04:12;19.5;15.8;8.8
74434;PMS7003;62867;52.038;29.256;2022-10-26T21:44:10;0;0;0
74434;PMS7003;62867;52.038;29.256;2022-10-26T21:49:24;24.6;17.6;9.4
74434;PMS7003;62867;52.038;29.256;2022-10-26T21:54:34;20.8;17;9
74434;PMS7003;62867;52.038;29.256;2022-10-26T21:59:18;24;16.6;8.8
74434;PMS7003;62867;52.038;29.256;2022-10-26T22:04:28;18.8;14.6;8.8
74434;PMS7003;62867;52.038;29.256;2022-10-26T22:09:22;21;14.2;9
74434;PMS7003;62867;52.038;29.256;2022-10-26T22:14:22;19;15.6;8
74434;PMS7003;62867;52.038;29.256;2022-10-26T22:19:01;19.5;15.5;8.8
74434;PMS7003;62867;52.038;29.256;2022-10-26T22:24:18;21.4;16.2;8.6
74434;PMS7003;62867;52.038;29.256;2022-10-26T22:28:51;18.2;15.2;9
74434;PMS7003;62867;52.038;29.256;2022-10-26T22:33:50;20.6;16;9.2
74434;PMS7003;62867;52.038;29.256;2022-10-26T22:39:10;18.4;15.2;8.6
74434;PMS7003;62867;52.038;29.256;2022-10-26T22:44:30;22.4;16.8;8.8
74434;PMS7003;62867;52.038;29.256;2022-10-26T22:49:28;24.6;18.8;9.4
74434;PMS7003;62867;52.038;29.256;2022-10-26T22:54:02;20.2;15.4;9
74434;PMS7003;62867;52.038;29.256;2022-10-26T22:59:12;18.8;15.2;8.4
74434;PMS7003;62867;52.038;29.256;2022-10-26T23:04:30;17.4;13.6;8.2
74434;PMS7003;62867;52.038;29.256;2022-10-26T23:09:30;16.8;13;8
74434;PMS7003;62867;52.038;29.256;2022-10-26T23:14:12;18;14.6;8.4
74434;PMS7003;62867;52.038;29.256;2022-10-26T23:18:50;19.8;16;8.3
74434;PMS7003;62867;52.038;29.256;2022-10-26T23:24:08;19;14.4;8.6
74434;PMS7003;62867;52.038;29.256;2022-10-26T23:29:04;21.6;15.2;9
74434;PMS7003;62867;52.038;29.256;2022-10-26T23:34:12;16.8;13.6;8
74434;PMS7003;62867;52.038;29.256;2022-10-26T23:38:50;20.6;16.2;8.4
74434;PMS7003;62867;52.038;29.256;2022-10-26T23:44:10;18.2;14.6;8.2
74434;PMS7003;62867;52.038;29.256;2022-10-26T23:49:24;18.5;16;9.5
